Time,TemperatureF,DewpointF,PressureIn,WindDirection,WindDirectionDegrees,WindSpeedMPH,WindSpeedGustMPH,Humidity,HourlyPrecipIn,Conditions,Clouds,dailyrainin,SoftwareType,DateUTC
2013-09-07 00:02:00,62.2,60.0,30.09,South,178,5.0,8.0,93,0.00,,,0.00,weatherlink.com 1.10,2013-09-07 07:02:00,
2013-09-07 00:17:00,62.0,60.0,30.08,South,175,4.0,8.0,93,0.00,,,0.00,weatherlink.com 1.10,2013-09-07 07:17:00,
2013-09-07 00:32:00,62.0,60.0,30.09,SSW,209,4.0,7.0,94,0.00,,,0.00,weatherlink.com 1.10,2013-09-07 07:32:00,
2013-09-07 00:47:00,62.1,60.0,30.09,SSW,200,4.0,7.0,94,0.00,,,0.00,weatherlink.com 1.10,2013-09-07 07:47:00,
2013-09-07 01:02:00,62.0,60.0,30.09,SSW,200,1.0,6.0,94,0.00,,,0.00,weatherlink.com 1.10,2013-09-07 08:02:00,
2013-09-07 01:17:00,61.9,60.0,30.09,SSW,195,2.0,7.0,94,0.00,,,0.00,weatherlink.com 1.10,2013-09-07 08:17:00,
2013-09-07 01:32:00,61.9,60.0,30.09,SSW,202,4.0,6.0,94,0.00,,,0.00,weatherlink.com 1.10,2013-09-07 08:32:00,
2013-09-07 01:47:00,61.9,60.0,30.09,South,190,2.0,5.0,94,0.00,,,0.00,weatherlink.com 1.10,2013-09-07 08:47:00,
2013-09-07 02:02:00,61.8,60.0,30.08,South,177,3.0,3.0,94,0.00,,,0.00,weatherlink.com 1.10,2013-09-07 09:02:00,
2013-09-07 02:17:00,61.9,60.0,30.08,SSE,159,2.0,5.0,94,0.00,,,0.00,weatherlink.com 1.10,2013-09-07 09:17:00,
2013-09-07 02:32:00,61.9,60.0,30.08,SSE,153,0.0,2.0,93,0.00,,,0.00,weatherlink.com 1.10,2013-09-07 09:32:00,
2013-09-07 02:47:00,61.8,60.0,30.08,SSE,153,0.0,0.0,94,0.00,,,0.00,weatherlink.com 1.10,2013-09-07 09:47:00,
2013-09-07 03:02:00,61.7,60.0,30.07,SSE,153,0.0,0.0,94,0.00,,,0.00,weatherlink.com 1.10,2013-09-07 10:02:00,
2013-09-07 03:17:00,61.6,60.0,30.07,SSE,153,0.0,0.0,94,0.00,,,0.00,weatherlink.com 1.10,2013-09-07 10:17:00,
2013-09-07 03:32:00,61.4,60.0,30.07,SSE,153,1.0,1.0,94,0.00,,,0.00,weatherlink.com 1.10,2013-09-07 10:32:00,
2013-09-07 03:47:00,61.4,60.0,30.07,South,175,1.0,3.0,95,0.00,,,0.00,weatherlink.com 1.10,2013-09-07 10:47:00,
2013-09-07 04:02:00,61.5,60.0,30.07,South,189,3.0,5.0,94,0.00,,,0.00,weatherlink.com 1.10,2013-09-07 11:02:00,
2013-09-07 04:17:00,61.6,60.0,30.07,South,189,0.0,3.0,94,0.00,,,0.00,weatherlink.com 1.10,2013-09-07 11:17:00,
2013-09-07 04:32:00,61.4,60.0,30.07,South,189,0.0,0.0,94,0.00,,,0.00,weatherlink.com 1.10,2013-09-07 11:32:00,
2013-09-07 04:47:00,61.3,60.0,30.07,South,189,0.0,3.0,94,0.00,,,0.00,weatherlink.com 1.10,2013-09-07 11:47:00,
2013-09-07 05:02:00,61.2,60.0,30.07,South,178,2.0,5.0,94,0.00,,,0.00,weatherlink.com 1.10,2013-09-07 12:02:00,
2013-09-07 05:17:00,61.1,59.0,30.07,South,180,0.0,4.0,94,0.00,,,0.00,weatherlink.com 1.10,2013-09-07 12:17:00,
2013-09-07 05:32:00,60.9,59.0,30.06,South,180,0.0,2.0,94,0.00,,,0.00,weatherlink.com 1.10,2013-09-07 12:32:00,
2013-09-07 05:47:00,60.7,59.0,30.07,South,180,0.0,0.0,94,0.00,,,0.00,weatherlink.com 1.10,2013-09-07 12:47:00,
2013-09-07 06:02:00,60.7,59.0,30.06,South,180,0.0,1.0,94,0.00,,,0.00,weatherlink.com 1.10,2013-09-07 13:02:00,
2013-09-07 06:17:00,60.5,59.0,30.06,South,180,0.0,0.0,94,0.00,,,0.00,weatherlink.com 1.10,2013-09-07 13:17:00,
2013-09-07 06:32:00,60.5,59.0,30.06,South,180,0.0,0.0,94,0.00,,,0.00,weatherlink.com 1.10,2013-09-07 13:32:00,
2013-09-07 06:47:00,60.5,59.0,30.06,South,180,0.0,0.0,95,0.00,,,0.00,weatherlink.com 1.10,2013-09-07 13:47:00,
2013-09-07 07:02:00,60.4,59.0,30.06,South,180,0.0,0.0,95,0.00,,,0.00,weatherlink.com 1.10,2013-09-07 14:02:00,
2013-09-07 07:17:00,60.5,59.0,30.06,South,180,0.0,0.0,95,0.00,,,0.00,weatherlink.com 1.10,2013-09-07 14:17:00,
2013-09-07 07:32:00,60.5,59.0,30.06,South,180,0.0,0.0,95,0.00,,,0.00,weatherlink.com 1.10,2013-09-07 14:32:00,
2013-09-07 07:47:00,60.7,59.0,30.06,South,180,0.0,0.0,95,0.00,,,0.00,weatherlink.com 1.10,2013-09-07 14:47:00,
2013-09-07 08:02:00,60.9,60.0,30.06,South,181,0.0,0.0,95,0.00,,,0.00,weatherlink.com 1.10,2013-09-07 15:02:00,
2013-09-07 08:17:00,61.1,60.0,30.06,WNW,290,2.0,3.0,95,0.00,,,0.00,weatherlink.com 1.10,2013-09-07 15:17:00,
2013-09-07 08:32:00,61.2,60.0,30.07,NNW,331,2.0,6.0,94,0.00,,,0.00,weatherlink.com 1.10,2013-09-07 15:32:00,
2013-09-07 08:47:00,61.3,60.0,30.06,WNW,300,4.0,5.0,94,0.00,,,0.00,weatherlink.com 1.10,2013-09-07 15:47:00,
2013-09-07 09:02:00,61.4,60.0,30.06,WNW,292,3.0,4.0,94,0.00,,,0.00,weatherlink.com 1.10,2013-09-07 16:02:00,
2013-09-07 09:17:00,61.5,60.0,30.06,NW,321,3.0,4.0,95,0.00,,,0.00,weatherlink.com 1.10,2013-09-07 16:17:00,
2013-09-07 09:32:00,61.6,60.0,30.07,NW,307,2.0,4.0,94,0.00,,,0.00,weatherlink.com 1.10,2013-09-07 16:32:00,
2013-09-07 09:47:00,61.7,60.0,30.07,NW,305,0.0,4.0,94,0.00,,,0.00,weatherlink.com 1.10,2013-09-07 16:47:00,
2013-09-07 10:02:00,61.9,60.0,30.07,NW,306,2.0,4.0,94,0.00,,,0.00,weatherlink.com 1.10,2013-09-07 17:02:00,
2013-09-07 10:17:00,62.0,60.0,30.07,NW,306,2.0,2.0,94,0.00,,,0.00,weatherlink.com 1.10,2013-09-07 17:17:00,
2013-09-07 10:32:00,62.1,60.0,30.07,NW,305,2.0,4.0,94,0.00,,,0.00,weatherlink.com 1.10,2013-09-07 17:32:00,
2013-09-07 10:47:00,62.3,60.0,30.06,NW,311,2.0,4.0,93,0.00,,,0.00,weatherlink.com 1.10,2013-09-07 17:47:00,
2013-09-07 11:02:00,62.4,60.0,30.06,NW,311,2.0,4.0,93,0.00,,,0.00,weatherlink.com 1.10,2013-09-07 18:02:00,
2013-09-07 11:17:00,62.4,60.0,30.06,WNW,291,3.0,5.0,93,0.00,,,0.00,weatherlink.com 1.10,2013-09-07 18:17:00,
2013-09-07 11:32:00,62.7,61.0,30.06,West,274,4.0,5.0,94,0.00,,,0.00,weatherlink.com 1.10,2013-09-07 18:32:00,
2013-09-07 11:47:00,63.0,61.0,30.06,WNW,302,4.0,7.0,92,0.00,,,0.00,weatherlink.com 1.10,2013-09-07 18:47:00,
2013-09-07 12:02:00,63.6,61.0,30.05,WNW,292,2.0,5.0,92,0.00,,,0.00,weatherlink.com 1.10,2013-09-07 19:02:00,
2013-09-07 12:17:00,64.7,62.0,30.05,WNW,288,4.0,5.0,90,0.00,,,0.00,weatherlink.com 1.10,2013-09-07 19:17:00,
2013-09-07 12:32:00,65.2,62.0,30.05,WNW,296,4.0,5.0,88,0.00,,,0.00,weatherlink.com 1.10,2013-09-07 19:32:00,
2013-09-07 12:47:00,65.5,62.0,30.05,NNW,341,4.0,6.0,87,0.00,,,0.00,weatherlink.com 1.10,2013-09-07 19:47:00,
2013-09-07 13:03:00,65.6,62.0,30.05,WNW,295,2.0,6.0,87,0.00,,,0.00,weatherlink.com 1.10,2013-09-07 20:03:00,
2013-09-07 13:18:00,66.1,62.0,30.05,WNW,290,5.0,6.0,85,0.00,,,0.00,weatherlink.com 1.10,2013-09-07 20:18:00,
2013-09-07 13:33:00,66.9,62.0,30.05,WNW,284,2.0,6.0,85,0.00,,,0.00,weatherlink.com 1.10,2013-09-07 20:33:00,
2013-09-07 13:48:00,68.1,62.0,30.04,NW,309,5.0,6.0,82,0.00,,,0.00,weatherlink.com 1.10,2013-09-07 20:48:00,
2013-09-07 14:03:00,68.8,62.0,30.04,WNW,299,0.0,6.0,78,0.00,,,0.00,weatherlink.com 1.10,2013-09-07 21:03:00,
2013-09-07 14:18:00,69.0,62.0,30.04,WNW,296,3.0,7.0,77,0.00,,,0.00,weatherlink.com 1.10,2013-09-07 21:18:00,
2013-09-07 14:33:00,69.2,61.0,30.04,West,279,3.0,7.0,75,0.00,,,0.00,weatherlink.com 1.10,2013-09-07 21:33:00,
2013-09-07 14:48:00,69.4,62.0,30.04,NNW,343,2.0,8.0,76,0.00,,,0.00,weatherlink.com 1.10,2013-09-07 21:48:00,
2013-09-07 15:03:00,69.0,61.0,30.04,WNW,298,6.0,8.0,75,0.00,,,0.00,weatherlink.com 1.10,2013-09-07 22:03:00,
2013-09-07 15:18:00,68.8,61.0,30.04,NNW,329,4.0,7.0,76,0.00,,,0.00,weatherlink.com 1.10,2013-09-07 22:18:00,
2013-09-07 15:33:00,69.1,61.0,30.03,NNW,336,3.0,8.0,75,0.00,,,0.00,weatherlink.com 1.10,2013-09-07 22:33:00,
2013-09-07 15:48:00,69.6,61.0,30.03,WNW,288,8.0,9.0,73,0.00,,,0.00,weatherlink.com 1.10,2013-09-07 22:48:00,
2013-09-07 16:03:00,69.8,61.0,30.02,West,279,4.0,9.0,74,0.00,,,0.00,weatherlink.com 1.10,2013-09-07 23:03:00,
2013-09-07 16:18:00,69.9,61.0,30.02,WNW,292,6.0,10.0,74,0.00,,,0.00,weatherlink.com 1.10,2013-09-07 23:18:00,
2013-09-07 16:33:00,69.9,61.0,30.02,NNW,340,4.0,10.0,74,0.00,,,0.00,weatherlink.com 1.10,2013-09-07 23:33:00,
2013-09-07 16:48:00,69.7,61.0,30.02,NW,309,5.0,10.0,74,0.00,,,0.00,weatherlink.com 1.10,2013-09-07 23:48:00,
2013-09-07 17:03:00,69.8,61.0,30.01,WNW,302,3.0,8.0,73,0.00,,,0.00,weatherlink.com 1.10,2013-09-08 00:03:00,
2013-09-07 17:18:00,69.8,61.0,30.01,WNW,289,5.0,9.0,73,0.00,,,0.00,weatherlink.com 1.10,2013-09-08 00:18:00,
2013-09-07 17:33:00,69.7,61.0,30.01,NW,309,5.0,11.0,73,0.00,,,0.00,weatherlink.com 1.10,2013-09-08 00:33:00,
2013-09-07 17:48:00,69.4,60.0,30.01,NNW,327,5.0,11.0,73,0.00,,,0.00,weatherlink.com 1.10,2013-09-08 00:48:00,
2013-09-07 18:03:00,69.4,60.0,30.00,WNW,293,5.0,10.0,73,0.00,,,0.00,weatherlink.com 1.10,2013-09-08 01:03:00,
2013-09-07 18:18:00,69.6,61.0,30.00,NW,316,5.0,9.0,73,0.00,,,0.00,weatherlink.com 1.10,2013-09-08 01:18:00,
2013-09-07 18:33:00,69.0,60.0,30.00,WNW,302,3.0,10.0,74,0.00,,,0.00,weatherlink.com 1.10,2013-09-08 01:33:00,
2013-09-07 18:48:00,68.5,60.0,30.00,NW,318,6.0,8.0,74,0.00,,,0.00,weatherlink.com 1.10,2013-09-08 01:48:00,
2013-09-07 19:03:00,67.9,60.0,30.00,NNW,332,4.0,7.0,75,0.00,,,0.00,weatherlink.com 1.10,2013-09-08 02:03:00,
2013-09-07 19:18:00,67.3,60.0,30.01,NNW,334,3.0,8.0,77,0.00,,,0.00,weatherlink.com 1.10,2013-09-08 02:18:00,
2013-09-07 19:33:00,66.6,60.0,30.01,NNW,331,5.0,7.0,78,0.00,,,0.00,weatherlink.com 1.10,2013-09-08 02:33:00,
2013-09-07 19:48:00,65.8,59.0,30.01,NW,323,2.0,5.0,79,0.00,,,0.00,weatherlink.com 1.10,2013-09-08 02:48:00,
2013-09-07 20:03:00,65.2,59.0,30.01,NW,323,2.0,6.0,81,0.00,,,0.00,weatherlink.com 1.10,2013-09-08 03:03:00,
2013-09-07 20:18:00,64.5,59.0,30.01,NW,321,0.0,5.0,83,0.00,,,0.00,weatherlink.com 1.10,2013-09-08 03:18:00,
2013-09-07 20:33:00,63.9,59.0,30.02,NNW,331,3.0,5.0,85,0.00,,,0.00,weatherlink.com 1.10,2013-09-08 03:33:00,
2013-09-07 20:48:00,63.4,59.0,30.02,NW,326,1.0,5.0,86,0.00,,,0.00,weatherlink.com 1.10,2013-09-08 03:48:00,
2013-09-07 21:03:00,63.0,59.0,30.02,NW,304,1.0,4.0,86,0.00,,,0.00,weatherlink.com 1.10,2013-09-08 04:03:00,
2013-09-07 21:18:00,62.9,59.0,30.02,WNW,298,2.0,4.0,87,0.00,,,0.00,weatherlink.com 1.10,2013-09-08 04:18:00,
2013-09-07 21:33:00,62.6,59.0,30.02,NW,311,1.0,6.0,87,0.00,,,0.00,weatherlink.com 1.10,2013-09-08 04:33:00,
2013-09-07 21:48:00,62.3,59.0,30.02,NW,305,2.0,4.0,88,0.00,,,0.00,weatherlink.com 1.10,2013-09-08 04:48:00,
2013-09-07 22:03:00,62.0,59.0,30.03,WNW,296,2.0,3.0,88,0.00,,,0.00,weatherlink.com 1.10,2013-09-08 05:03:00,
2013-09-07 22:18:00,61.6,58.0,30.04,WNW,299,0.0,4.0,89,0.00,,,0.00,weatherlink.com 1.10,2013-09-08 05:18:00,
2013-09-07 22:33:00,61.2,58.0,30.03,WNW,295,2.0,4.0,90,0.00,,,0.00,weatherlink.com 1.10,2013-09-08 05:33:00,
2013-09-07 22:48:00,60.9,58.0,30.04,WNW,295,2.0,2.0,91,0.00,,,0.00,weatherlink.com 1.10,2013-09-08 05:48:00,
2013-09-07 23:03:00,60.5,58.0,30.04,NNW,340,0.0,4.0,91,0.00,,,0.00,weatherlink.com 1.10,2013-09-08 06:03:00,
2013-09-07 23:18:00,60.4,58.0,30.04,NNW,340,2.0,2.0,92,0.00,,,0.00,weatherlink.com 1.10,2013-09-08 06:18:00,
2013-09-07 23:33:00,60.4,58.0,30.04,NNW,328,0.0,1.0,92,0.00,,,0.00,weatherlink.com 1.10,2013-09-08 06:33:00,
2013-09-07 23:48:00,60.3,58.0,30.04,WNW,295,1.0,4.0,93,0.00,,,0.00,weatherlink.com 1.10,2013-09-08 06:48:00,